Sikinos — 9HA2865 — position and weather

sailwx.info

Track history (hours):
 
Tides and Currents Weather Stations Pressure Air Temp Water Temp Dewpoint Dewpoint Depression Visibility Wind Speed Wind Dir Waves Ship Positions

Sikinos

Last reported at 2017-Dec-11 17:01 UTC. Time now 2017-Dec-12 04:46 UTC.
Position N 50°27' W 000°03'.

Length 90 m; draft 5.5 m.

Type: Ship (hazmat cat A). MMSI: 256462000.

Date/timePositionNaut miles runAvg speedWind from/ knotsBaromVisibWave heightAir tempDewpointWater temp
2017-Dec-11 17:01N 50°27' W 000°03'611.0
2017-Dec-11 16:30N 50°29' E 000°05'510.6
2017-Dec-11 16:01N 50°31' E 000°13'510.4
2017-Dec-11 15:29N 50°32' E 000°21'510.4
2017-Dec-11 14:59N 50°34' E 000°29'510.6
2017-Dec-11 14:30N 50°36' E 000°37'611.5
2017-Dec-11 14:01N 50°39' E 000°44'612.4
2017-Dec-11 13:30N 50°42' E 000°52'613.1
2017-Dec-11 13:00N 50°46' E 001°01'1413.5
2017-Dec-11 12:00N 50°55' E 001°17'714.3
2017-Dec-11 11:30N 50°60' E 001°25'713.9
2017-Dec-11 11:00N 51°04' E 001°33'713.3
2017-Dec-11 10:30N 51°09' E 001°40'612.8
2017-Dec-11 10:00N 51°14' E 001°47'612.1
2017-Dec-11 09:31N 51°19' E 001°53'611.6
2017-Dec-11 09:00N 51°24' E 001°58'510.2
2017-Dec-11 08:30N 51°23' E 002°07'612.2
2017-Dec-11 08:01N 51°21' E 002°15'611.2
2017-Dec-11 07:30N 51°22' E 002°24'611.4
2017-Dec-11 06:58N 51°23' E 002°34'511.4
2017-Dec-11 06:30N 51°23' E 002°43'4 7.4
2017-Dec-11 05:56N 51°22' E 002°49'511.8
2017-Dec-11 05:30N 51°22' E 002°57'611.8
2017-Dec-11 05:00N 51°22' E 003°06'4 7.1
2017-Dec-11 04:30N 51°21' E 003°12'0 0.2
2017-Dec-11 03:59N 51°21' E 003°12'0 0.0
2017-Dec-11 03:29N 51°21' E 003°12'0 0.0
2017-Dec-11 02:59N 51°21' E 003°12'0 0.0
2017-Dec-11 02:28N 51°21' E 003°12'0 0.0
2017-Dec-11 01:59N 51°21' E 003°12'0 0.0
2017-Dec-11 01:29N 51°21' E 003°12'0 0.0
2017-Dec-11 00:59N 51°21' E 003°12'0 0.0
2017-Dec-11 00:29N 51°21' E 003°12'0 0.0
2017-Dec-10 23:59N 51°21' E 003°12'0 0.0
2017-Dec-10 23:26N 51°21' E 003°12'0 0.0
2017-Dec-10 22:59N 51°21' E 003°12'0 0.0
2017-Dec-10 22:28N 51°21' E 003°12'0 0.0
2017-Dec-10 21:59N 51°21' E 003°12'0 0.0
2017-Dec-10 21:29N 51°21' E 003°12'0 0.0
2017-Dec-10 20:59N 51°21' E 003°12'0 0.0
2017-Dec-10 20:29N 51°21' E 003°12'0 0.0
2017-Dec-10 19:59N 51°21' E 003°12'0 0.0
2017-Dec-10 19:29N 51°21' E 003°12'0 0.0
2017-Dec-10 18:59N 51°21' E 003°12'0 0.0
2017-Dec-10 18:29N 51°21' E 003°12'0 0.0
2017-Dec-10 17:59N 51°21' E 003°12'0 0.0
2017-Dec-10 17:29N 51°21' E 003°12'0 0.0
2017-Dec-10 16:59N 51°21' E 003°12'0 0.0
2017-Dec-10 16:29N 51°21' E 003°12'0 0.0
2017-Dec-10 15:59N 51°21' E 003°12'0 0.0
2017-Dec-10 15:29N 51°21' E 003°12'0 0.0
2017-Dec-10 14:59N 51°21' E 003°12'0 0.0
2017-Dec-10 14:28N 51°21' E 003°12'0 0.0
2017-Dec-10 13:59N 51°21' E 003°12'0 0.0
2017-Dec-10 13:28N 51°21' E 003°12'0 0.3
2017-Dec-10 13:00N 51°21' E 003°12'1 2.5
2017-Dec-10 12:30N 51°22' E 003°11'612.0
2017-Dec-10 12:00N 51°22' E 003°02'612.2
2017-Dec-10 11:30N 51°22' E 002°52'611.4
2017-Dec-10 10:58N 51°22' E 002°42'511.2
2017-Dec-10 10:30N 51°22' E 002°34'611.5
2017-Dec-10 10:00N 51°20' E 002°25'612.3
2017-Dec-10 09:29N 51°17' E 002°16'612.8
2017-Dec-10 09:00N 51°14' E 002°07'713.1
2017-Dec-10 08:30N 51°11' E 001°59'713.4
2017-Dec-10 08:00N 51°07' E 001°49'713.8
2017-Dec-10 07:30N 51°03' E 001°41'714.3
2017-Dec-10 07:00N 50°58' E 001°33'714.3
2017-Dec-10 06:31N 50°52' E 001°26'6212.8
2017-Dec-10 01:38N 50°20' E 000°02'413.1
2017-Dec-10 01:19N 50°22' W 000°04'513.5
2017-Dec-10 00:57N 50°24' W 000°11'613.5
2017-Dec-10 00:29N 50°27' W 000°19'813.7
2017-Dec-09 23:56N 50°31' W 000°30'613.5
2017-Dec-09 23:30N 50°34' W 000°38'914.0
2017-Dec-09 22:51N 50°38' W 000°50'513.2
2017-Dec-09 22:30N 50°40' W 000°56'611.6
2017-Dec-09 22:01N 50°44' W 001°04'611.9
2017-Dec-09 21:31N 50°46' W 001°13'4 8.5
2017-Dec-09 21:01N 50°49' W 001°17'510.4
2017-Dec-09 20:30N 50°52' W 001°23'1 0.1
2017-Dec-09 08:56N 50°53' W 001°24'2 4.6
2017-Dec-09 08:31N 50°52' W 001°22'5 9.3
2017-Dec-09 08:00N 50°47' W 001°19'510.7
2017-Dec-09 07:30N 50°46' W 001°10'510.5
2017-Dec-09 07:00N 50°44' W 001°03'0 0.6
2017-Dec-09 06:30N 50°43' W 001°03'0 0.0
2017-Dec-09 06:00N 50°43' W 001°03'0 0.2
2017-Dec-09 05:30N 50°43' W 001°03'0 0.1
2017-Dec-09 05:00N 50°43' W 001°03'0 0.0
2017-Dec-09 04:27N 50°43' W 001°03'0 0.2
2017-Dec-09 04:00N 50°43' W 001°03'0 0.2
2017-Dec-09 03:30N 50°43' W 001°03'0 0.0
2017-Dec-09 03:00N 50°43' W 001°03'0 0.0
2017-Dec-09 02:30N 50°43' W 001°03'0 0.0
2017-Dec-09 02:00N 50°43' W 001°03'0 0.0
2017-Dec-09 01:30N 50°43' W 001°03'0 0.0
2017-Dec-09 01:00N 50°43' W 001°03'0 0.0
2017-Dec-09 00:30N 50°43' W 001°03'0 0.0
2017-Dec-09 00:00N 50°43' W 001°03'0 0.0
2017-Dec-08 23:30N 50°43' W 001°03'0 0.0
2017-Dec-08 22:57N 50°43' W 001°03'0 0.0
2017-Dec-08 22:30N 50°43' W 001°03'0 0.0
2017-Dec-08 22:00N 50°43' W 001°03'0 0.0
2017-Dec-08 21:30N 50°43' W 001°03'0 0.0
2017-Dec-08 21:00N 50°43' W 001°03'0 0.0
2017-Dec-08 20:30N 50°43' W 001°03'0 0.0
2017-Dec-08 20:00N 50°43' W 001°03'2 3.6
2017-Dec-08 19:30N 50°43' W 001°00'5 9.1
2017-Dec-08 19:01N 50°40' W 000°56'611.9
2017-Dec-08 18:30N 50°38' W 000°47'711.7
2017-Dec-08 17:56N 50°35' W 000°37'511.6
2017-Dec-08 17:30N 50°33' W 000°30'2311.1
2017-Dec-08 15:24N 50°33' E 000°07'610.3
2017-Dec-08 14:47N 50°35' E 000°17'310.3
2017-Dec-08 14:30N 50°35' E 000°21'5 9.4
2017-Dec-08 14:00N 50°36' E 000°28'4 9.0
2017-Dec-08 13:30N 50°38' E 000°35'5 8.9
2017-Dec-08 13:00N 50°40' E 000°41'5 9.1
2017-Dec-08 12:30N 50°42' E 000°47'5 9.5
2017-Dec-08 12:00N 50°45' E 000°54'510.3
2017-Dec-08 11:30N 50°48' E 001°01'1211.9
2017-Dec-08 10:29N 50°54' E 001°17'713.8
2017-Dec-08 10:00N 50°59' E 001°24'714.4
2017-Dec-08 09:31N 51°04' E 001°32'5 9.5
2017-Dec-08 09:00N 51°02' E 001°39'5 9.8
2017-Dec-08 08:30N 51°02' E 001°47'612.3
2017-Dec-08 08:00N 51°02' E 001°57'612.0
2017-Dec-08 07:30N 51°03' E 002°06'611.8
2017-Dec-08 06:59N 51°04' E 002°16'4 7.5
2017-Dec-08 06:28N 51°03' E 002°22'0 0.0
2017-Dec-08 06:00N 51°03' E 002°22'1 2.5
2017-Dec-08 05:30N 51°03' E 002°20'1 1.1
2017-Dec-08 05:00N 51°03' E 002°19'0 0.0
2017-Dec-08 04:09N 51°03' E 002°19'0 0.0
2017-Dec-08 04:00N 51°03' E 002°19'0 0.0
2017-Dec-08 03:27N 51°03' E 002°19'0 0.0
2017-Dec-08 02:57N 51°03' E 002°19'0 0.0
2017-Dec-08 02:30N 51°03' E 002°19'0 0.0
2017-Dec-08 02:00N 51°03' E 002°19'0 0.0
2017-Dec-08 01:27N 51°03' E 002°19'0 0.0
2017-Dec-08 01:00N 51°03' E 002°19'0 0.0
2017-Dec-08 00:30N 51°03' E 002°19'0 0.0
2017-Dec-08 00:00N 51°03' E 002°19'0 0.0
2017-Dec-07 23:30N 51°03' E 002°19'0 0.0
2017-Dec-07 23:00N 51°03' E 002°19'0 0.0
2017-Dec-07 22:30N 51°03' E 002°19'0 0.0
2017-Dec-07 22:00N 51°03' E 002°19'0 0.0
2017-Dec-07 21:24N 51°03' E 002°19'0 0.0
2017-Dec-07 20:18N 51°03' E 002°19'0 0.0
2017-Dec-07 19:57N 51°03' E 002°19'0 0.0
2017-Dec-07 19:21N 51°03' E 002°19'0 0.0
2017-Dec-07 19:00N 51°03' E 002°19'0 0.0
2017-Dec-07 18:18N 51°03' E 002°19'0 0.0
2017-Dec-07 17:57N 51°03' E 002°19'0 0.0
2017-Dec-07 17:30N 51°03' E 002°19'0 0.0
2017-Dec-07 17:00N 51°03' E 002°19'0 0.0
2017-Dec-07 16:21N 51°03' E 002°19'0 0.0
2017-Dec-07 15:51N 51°03' E 002°19'0 0.0
2017-Dec-07 15:06N 51°03' E 002°19'0 0.0
2017-Dec-07 14:36N 51°03' E 002°19'0 0.0
2017-Dec-07 14:27N 51°03' E 002°19'0 0.0
2017-Dec-07 14:00N 51°03' E 002°19'1 2.1
2017-Dec-07 13:30N 51°03' E 002°21'0 0.5
2017-Dec-07 12:57N 51°03' E 002°21'0 0.0
2017-Dec-07 12:29N 51°03' E 002°21'1 1.5
2017-Dec-07 11:57N 51°04' E 002°21'712.3
2017-Dec-07 11:24N 51°03' E 002°10'512.2
2017-Dec-07 11:00N 51°03' E 002°03'510.5
2017-Dec-07 10:30N 51°04' E 001°54'5 9.8
2017-Dec-07 10:00N 51°06' E 002°01'611.7
2017-Dec-07 09:31N 51°08' E 002°10'611.7
2017-Dec-07 09:00N 51°10' E 002°19'611.5
2017-Dec-07 08:29N 51°13' E 002°26'510.9
2017-Dec-07 08:00N 51°17' E 002°32'510.4
2017-Dec-07 07:30N 51°20' E 002°39'4 7.5
2017-Dec-07 06:58N 51°23' E 002°44'510.3
2017-Dec-07 06:28N 51°22' E 002°52'510.9
2017-Dec-07 06:01N 51°22' E 003°00'510.9
2017-Dec-07 05:31N 51°22' E 003°09'2 4.5
2017-Dec-07 05:00N 51°21' E 003°12'0 0.0
2017-Dec-07 04:30N 51°21' E 003°12'0 0.0
2017-Dec-07 04:00N 51°21' E 003°12'0 0.0
2017-Dec-07 03:30N 51°21' E 003°12'0 0.0
2017-Dec-07 03:00N 51°21' E 003°12'0 0.0
2017-Dec-07 02:30N 51°21' E 003°12'0 0.0
2017-Dec-07 02:00N 51°21' E 003°12'0 0.0
2017-Dec-07 01:30N 51°21' E 003°12'0 0.0
2017-Dec-07 01:00N 51°21' E 003°12'0 0.0
2017-Dec-07 00:30N 51°21' E 003°12'0 0.0
2017-Dec-07 00:00N 51°21' E 003°12'0 0.0
2017-Dec-06 23:30N 51°21' E 003°12'0 0.0
2017-Dec-06 23:00N 51°21' E 003°12'0 0.0
2017-Dec-06 22:30N 51°21' E 003°12'0 0.0
2017-Dec-06 22:00N 51°21' E 003°12'0 0.0
2017-Dec-06 21:27N 51°21' E 003°12'0 0.0
2017-Dec-06 21:00N 51°21' E 003°12'  
2017-Dec-04 10:21N 51°21' E 003°12'0 0.0
2017-Dec-04 10:00N 51°21' E 003°12'0 0.0
2017-Dec-04 09:30N 51°21' E 003°12'0 0.0
2017-Dec-04 09:00N 51°21' E 003°12'0 0.0
2017-Dec-04 08:30N 51°21' E 003°12'0 0.0
2017-Dec-04 07:54N 51°21' E 003°12'0 0.0
2017-Dec-04 07:30N 51°21' E 003°12'0 0.0
2017-Dec-04 07:00N 51°21' E 003°12'0 0.0
2017-Dec-04 06:30N 51°21' E 003°12'0 0.0
2017-Dec-04 06:00N 51°21' E 003°12'0 0.0
2017-Dec-04 05:30N 51°21' E 003°12'0 0.0
2017-Dec-04 05:00N 51°21' E 003°12'0 0.0
2017-Dec-04 04:30N 51°21' E 003°12'0 0.0
2017-Dec-04 04:00N 51°21' E 003°12'0 0.0
2017-Dec-04 03:30N 51°21' E 003°12'0 0.0
2017-Dec-04 03:00N 51°21' E 003°12'0 0.0
2017-Dec-04 02:30N 51°21' E 003°12'0 0.0
2017-Dec-04 02:00N 51°21' E 003°12'0 0.0
2017-Dec-04 01:30N 51°21' E 003°12'0 0.0
2017-Dec-04 01:00N 51°21' E 003°12'0 0.0
2017-Dec-04 00:30N 51°21' E 003°12'0 0.0
2017-Dec-04 00:00N 51°21' E 003°12'0 0.0
2017-Dec-03 23:30N 51°21' E 003°12'0 0.0
2017-Dec-03 23:00N 51°21' E 003°12'0 0.0
2017-Dec-03 22:30N 51°21' E 003°12'0 0.0
2017-Dec-03 22:00N 51°21' E 003°12'0 0.2
2017-Dec-03 21:31N 51°21' E 003°12'2 4.7
2017-Dec-03 21:01N 51°22' E 003°09'611.3
2017-Dec-03 20:31N 51°21' E 002°60'610.8
2017-Dec-03 19:58N 51°21' E 002°50'511.0
2017-Dec-03 19:30N 51°21' E 002°42'510.5
2017-Dec-03 19:00N 51°19' E 002°35'610.5
2017-Dec-03 18:28N 51°15' E 002°28'510.4
2017-Dec-03 17:59N 51°12' E 002°22'5 9.8
2017-Dec-03 17:29N 51°10' E 002°15'510.6
2017-Dec-03 17:00N 51°08' E 002°08'511.0
2017-Dec-03 16:30N 51°06' E 001°60'611.4
2017-Dec-03 16:00N 51°03' E 001°51'4 8.8
2017-Dec-03 15:30N 51°02' E 001°58'612.5
2017-Dec-03 15:00N 51°03' E 002°08'612.6
2017-Dec-03 14:30N 51°04' E 002°18'2 4.6
2017-Dec-03 14:00N 51°03' E 002°21'1 2.5
2017-Dec-03 13:30N 51°03' E 002°19'0 0.4
2017-Dec-03 12:38N 51°03' E 002°19'0 0.0
2017-Dec-03 12:29N 51°03' E 002°19'0 0.0
2017-Dec-03 11:56N 51°03' E 002°19'0 0.0
2017-Dec-03 11:23N 51°03' E 002°19'0 0.0
2017-Dec-03 10:47N 51°03' E 002°19'0 0.0
2017-Dec-03 10:17N 51°03' E 002°19'0 0.0
2017-Dec-03 09:53N 51°03' E 002°19'0 0.0
2017-Dec-03 09:14N 51°03' E 002°19'0 0.0
2017-Dec-03 08:56N 51°03' E 002°19'0 0.0
2017-Dec-03 08:25N 51°03' E 002°19'0 1.0
2017-Dec-03 07:55N 51°03' E 002°19'0 0.0
2017-Dec-03 07:28N 51°03' E 002°19'0 0.0
2017-Dec-03 06:55N 51°03' E 002°19'0 0.0
2017-Dec-03 06:19N 51°03' E 002°19'0 0.0
2017-Dec-03 05:37N 51°03' E 002°19'0 0.0
2017-Dec-03 05:25N 51°03' E 002°19'0 0.0
2017-Dec-03 04:58N 51°03' E 002°19'0 0.0
2017-Dec-03 04:25N 51°03' E 002°19'0 0.0
2017-Dec-03 03:55N 51°03' E 002°19'0 0.0
2017-Dec-03 03:22N 51°03' E 002°19'0 0.0
2017-Dec-03 02:55N 51°03' E 002°19'0 0.0
2017-Dec-03 02:28N 51°03' E 002°19'0 0.0
2017-Dec-03 01:55N 51°03' E 002°19'0 0.0
2017-Dec-03 01:25N 51°03' E 002°19'0 0.0
2017-Dec-03 00:55N 51°03' E 002°19'0 0.0
2017-Dec-03 00:28N 51°03' E 002°19'0 0.0
2017-Dec-02 23:58N 51°03' E 002°19'0 0.0
2017-Dec-02 23:28N 51°03' E 002°19'0 0.0
2017-Dec-02 22:58N 51°03' E 002°19'0 0.0
2017-Dec-02 22:28N 51°03' E 002°19'0 0.0
2017-Dec-02 21:49N 51°03' E 002°19'0 0.0
2017-Dec-02 21:16N 51°03' E 002°19'0 0.0
2017-Dec-02 20:58N 51°03' E 002°19'0 0.0
2017-Dec-02 20:19N 51°03' E 002°19'0 0.0
2017-Dec-02 19:58N 51°03' E 002°19'0 0.0
2017-Dec-02 17:43N 51°03' E 002°19'0 0.1
2017-Dec-02 17:30N 51°03' E 002°19'0 0.2
2017-Dec-02 16:54N 51°03' E 002°19'0 0.0
2017-Dec-02 16:00N 51°03' E 002°19'0 0.0
2017-Dec-02 15:30N 51°03' E 002°19'0 0.0
2017-Dec-02 15:00N 51°03' E 002°19'0 0.0
2017-Dec-02 14:30N 51°03' E 002°19'0 0.0
2017-Dec-02 13:51N 51°03' E 002°19'0 0.0
2017-Dec-02 13:27N 51°03' E 002°19'0 0.0
2017-Dec-02 12:57N 51°03' E 002°19'0 0.0
2017-Dec-02 12:27N 51°03' E 002°19'0 0.0
2017-Dec-02 12:00N 51°03' E 002°19'0 0.0
2017-Dec-02 11:27N 51°03' E 002°19'0 0.0
2017-Dec-02 10:57N 51°03' E 002°19'0 0.0
2017-Dec-02 10:30N 51°03' E 002°19'0 0.0
2017-Dec-02 09:57N 51°03' E 002°19'0 0.0
2017-Dec-02 09:27N 51°03' E 002°19'0 0.0
2017-Dec-02 08:57N 51°03' E 002°19'0 0.0
2017-Dec-02 08:15N 51°03' E 002°19'0 0.0
2017-Dec-02 07:48N 51°03' E 002°19'0 0.0
2017-Dec-02 07:21N 51°03' E 002°19'0 0.0
2017-Dec-02 06:57N 51°03' E 002°19'0 0.0
2017-Dec-02 06:27N 51°03' E 002°19'0 0.0
2017-Dec-02 05:57N 51°03' E 002°19'0 0.0
2017-Dec-02 05:18N 51°03' E 002°19'0 0.0
2017-Dec-02 04:51N 51°03' E 002°19'0 0.0
2017-Dec-02 04:27N 51°03' E 002°19'0 0.6
2017-Dec-02 04:00N 51°03' E 002°20'1 1.8
2017-Dec-02 03:25N 51°03' E 002°21'1 2.2
2017-Dec-02 03:00N 51°04' E 002°21'5 9.0
2017-Dec-02 02:29N 51°04' E 002°14'510.0
2017-Dec-02 01:59N 51°03' E 002°06'510.4
2017-Dec-02 01:30N 51°02' E 001°58'5 9.2
2017-Dec-02 01:00N 51°02' E 001°51'4 8.1
2017-Dec-02 00:30N 51°05' E 001°55'510.1
2017-Dec-02 00:00N 51°07' E 002°03'5 9.7
2017-Dec-01 23:30N 51°08' E 002°10'5 9.6
2017-Dec-01 23:00N 51°10' E 002°17'5 8.5
2017-Dec-01 22:29N 51°12' E 002°23'4 9.0
2017-Dec-01 21:59N 51°15' E 002°29'5 9.7
2017-Dec-01 21:28N 51°19' E 002°34'510.1
2017-Dec-01 21:00N 51°21' E 002°41'510.2
2017-Dec-01 20:29N 51°22' E 002°49'612.5
2017-Dec-01 20:01N 51°22' E 002°59'612.6
2017-Dec-01 19:30N 51°22' E 003°09'2 4.6
2017-Dec-01 19:00N 51°21' E 003°12'0 0.0
2017-Dec-01 18:30N 51°21' E 003°12'0 0.0
2017-Dec-01 18:00N 51°21' E 003°12'0 0.0
2017-Dec-01 17:30N 51°21' E 003°12'  
Track history (hours):
 
Tides and Currents Weather Stations Pressure Air Temp Water Temp Dewpoint Dewpoint Depression Visibility Wind Speed Wind Dir Waves Ship Positions

Sikinos

Last reported at 2017-Dec-11 17:01 UTC. Time now 2017-Dec-12 04:46 UTC.
Position N 50°27' W 000°03'.

Length 90 m; draft 5.5 m.

Type: Ship (hazmat cat A). MMSI: 256462000.

Date/timePositionNaut miles runAvg speedWind from/ knotsBaromVisibWave heightAir tempDewpointWater temp
2017-Dec-11 17:01N 50°27' W 000°03'611.0
2017-Dec-11 16:30N 50°29' E 000°05'510.6
2017-Dec-11 16:01N 50°31' E 000°13'510.4
2017-Dec-11 15:29N 50°32' E 000°21'510.4
2017-Dec-11 14:59N 50°34' E 000°29'510.6
2017-Dec-11 14:30N 50°36' E 000°37'611.5
2017-Dec-11 14:01N 50°39' E 000°44'612.4
2017-Dec-11 13:30N 50°42' E 000°52'613.1
2017-Dec-11 13:00N 50°46' E 001°01'1413.5
2017-Dec-11 12:00N 50°55' E 001°17'714.3
2017-Dec-11 11:30N 50°60' E 001°25'713.9
2017-Dec-11 11:00N 51°04' E 001°33'713.3
2017-Dec-11 10:30N 51°09' E 001°40'612.8
2017-Dec-11 10:00N 51°14' E 001°47'612.1
2017-Dec-11 09:31N 51°19' E 001°53'611.6
2017-Dec-11 09:00N 51°24' E 001°58'510.2
2017-Dec-11 08:30N 51°23' E 002°07'612.2
2017-Dec-11 08:01N 51°21' E 002°15'611.2
2017-Dec-11 07:30N 51°22' E 002°24'611.4
2017-Dec-11 06:58N 51°23' E 002°34'511.4
2017-Dec-11 06:30N 51°23' E 002°43'4 7.4
2017-Dec-11 05:56N 51°22' E 002°49'511.8
2017-Dec-11 05:30N 51°22' E 002°57'611.8
2017-Dec-11 05:00N 51°22' E 003°06'4 7.1
2017-Dec-11 04:30N 51°21' E 003°12'0 0.2
2017-Dec-11 03:59N 51°21' E 003°12'0 0.0
2017-Dec-11 03:29N 51°21' E 003°12'0 0.0
2017-Dec-11 02:59N 51°21' E 003°12'0 0.0
2017-Dec-11 02:28N 51°21' E 003°12'0 0.0
2017-Dec-11 01:59N 51°21' E 003°12'0 0.0
2017-Dec-11 01:29N 51°21' E 003°12'0 0.0
2017-Dec-11 00:59N 51°21' E 003°12'0 0.0
2017-Dec-11 00:29N 51°21' E 003°12'0 0.0
2017-Dec-10 23:59N 51°21' E 003°12'0 0.0
2017-Dec-10 23:26N 51°21' E 003°12'0 0.0
2017-Dec-10 22:59N 51°21' E 003°12'0 0.0
2017-Dec-10 22:28N 51°21' E 003°12'0 0.0
2017-Dec-10 21:59N 51°21' E 003°12'0 0.0
2017-Dec-10 21:29N 51°21' E 003°12'0 0.0
2017-Dec-10 20:59N 51°21' E 003°12'0 0.0
2017-Dec-10 20:29N 51°21' E 003°12'0 0.0
2017-Dec-10 19:59N 51°21' E 003°12'0 0.0
2017-Dec-10 19:29N 51°21' E 003°12'0 0.0
2017-Dec-10 18:59N 51°21' E 003°12'0 0.0
2017-Dec-10 18:29N 51°21' E 003°12'0 0.0
2017-Dec-10 17:59N 51°21' E 003°12'0 0.0
2017-Dec-10 17:29N 51°21' E 003°12'0 0.0
2017-Dec-10 16:59N 51°21' E 003°12'0 0.0
2017-Dec-10 16:29N 51°21' E 003°12'0 0.0
2017-Dec-10 15:59N 51°21' E 003°12'0 0.0
2017-Dec-10 15:29N 51°21' E 003°12'0 0.0
2017-Dec-10 14:59N 51°21' E 003°12'0 0.0
2017-Dec-10 14:28N 51°21' E 003°12'0 0.0
2017-Dec-10 13:59N 51°21' E 003°12'0 0.0
2017-Dec-10 13:28N 51°21' E 003°12'0 0.3
2017-Dec-10 13:00N 51°21' E 003°12'1 2.5
2017-Dec-10 12:30N 51°22' E 003°11'612.0
2017-Dec-10 12:00N 51°22' E 003°02'612.2
2017-Dec-10 11:30N 51°22' E 002°52'611.4
2017-Dec-10 10:58N 51°22' E 002°42'511.2
2017-Dec-10 10:30N 51°22' E 002°34'611.5
2017-Dec-10 10:00N 51°20' E 002°25'612.3
2017-Dec-10 09:29N 51°17' E 002°16'612.8
2017-Dec-10 09:00N 51°14' E 002°07'713.1
2017-Dec-10 08:30N 51°11' E 001°59'713.4
2017-Dec-10 08:00N 51°07' E 001°49'713.8
2017-Dec-10 07:30N 51°03' E 001°41'714.3
2017-Dec-10 07:00N 50°58' E 001°33'714.3
2017-Dec-10 06:31N 50°52' E 001°26'6212.8
2017-Dec-10 01:38N 50°20' E 000°02'413.1
2017-Dec-10 01:19N 50°22' W 000°04'513.5
2017-Dec-10 00:57N 50°24' W 000°11'613.5
2017-Dec-10 00:29N 50°27' W 000°19'813.7
2017-Dec-09 23:56N 50°31' W 000°30'613.5
2017-Dec-09 23:30N 50°34' W 000°38'914.0
2017-Dec-09 22:51N 50°38' W 000°50'513.2
2017-Dec-09 22:30N 50°40' W 000°56'611.6
2017-Dec-09 22:01N 50°44' W 001°04'611.9
2017-Dec-09 21:31N 50°46' W 001°13'4 8.5
2017-Dec-09 21:01N 50°49' W 001°17'510.4
2017-Dec-09 20:30N 50°52' W 001°23'1 0.1
2017-Dec-09 08:56N 50°53' W 001°24'2 4.6
2017-Dec-09 08:31N 50°52' W 001°22'5 9.3
2017-Dec-09 08:00N 50°47' W 001°19'510.7
2017-Dec-09 07:30N 50°46' W 001°10'510.5
2017-Dec-09 07:00N 50°44' W 001°03'0 0.6
2017-Dec-09 06:30N 50°43' W 001°03'0 0.0
2017-Dec-09 06:00N 50°43' W 001°03'0 0.2
2017-Dec-09 05:30N 50°43' W 001°03'0 0.1
2017-Dec-09 05:00N 50°43' W 001°03'0 0.0
2017-Dec-09 04:27N 50°43' W 001°03'0 0.2
2017-Dec-09 04:00N 50°43' W 001°03'0 0.2
2017-Dec-09 03:30N 50°43' W 001°03'0 0.0
2017-Dec-09 03:00N 50°43' W 001°03'0 0.0
2017-Dec-09 02:30N 50°43' W 001°03'0 0.0
2017-Dec-09 02:00N 50°43' W 001°03'0 0.0
2017-Dec-09 01:30N 50°43' W 001°03'0 0.0
2017-Dec-09 01:00N 50°43' W 001°03'0 0.0
2017-Dec-09 00:30N 50°43' W 001°03'0 0.0
2017-Dec-09 00:00N 50°43' W 001°03'0 0.0
2017-Dec-08 23:30N 50°43' W 001°03'0 0.0
2017-Dec-08 22:57N 50°43' W 001°03'0 0.0
2017-Dec-08 22:30N 50°43' W 001°03'0 0.0
2017-Dec-08 22:00N 50°43' W 001°03'0 0.0
2017-Dec-08 21:30N 50°43' W 001°03'0 0.0
2017-Dec-08 21:00N 50°43' W 001°03'0 0.0
2017-Dec-08 20:30N 50°43' W 001°03'0 0.0
2017-Dec-08 20:00N 50°43' W 001°03'2 3.6
2017-Dec-08 19:30N 50°43' W 001°00'5 9.1
2017-Dec-08 19:01N 50°40' W 000°56'611.9
2017-Dec-08 18:30N 50°38' W 000°47'711.7
2017-Dec-08 17:56N 50°35' W 000°37'511.6
2017-Dec-08 17:30N 50°33' W 000°30'2311.1
2017-Dec-08 15:24N 50°33' E 000°07'610.3
2017-Dec-08 14:47N 50°35' E 000°17'310.3
2017-Dec-08 14:30N 50°35' E 000°21'5 9.4
2017-Dec-08 14:00N 50°36' E 000°28'4 9.0
2017-Dec-08 13:30N 50°38' E 000°35'5 8.9
2017-Dec-08 13:00N 50°40' E 000°41'5 9.1
2017-Dec-08 12:30N 50°42' E 000°47'5 9.5
2017-Dec-08 12:00N 50°45' E 000°54'510.3
2017-Dec-08 11:30N 50°48' E 001°01'1211.9
2017-Dec-08 10:29N 50°54' E 001°17'713.8
2017-Dec-08 10:00N 50°59' E 001°24'714.4
2017-Dec-08 09:31N 51°04' E 001°32'5 9.5
2017-Dec-08 09:00N 51°02' E 001°39'5 9.8
2017-Dec-08 08:30N 51°02' E 001°47'612.3
2017-Dec-08 08:00N 51°02' E 001°57'612.0
2017-Dec-08 07:30N 51°03' E 002°06'611.8
2017-Dec-08 06:59N 51°04' E 002°16'4 7.5
2017-Dec-08 06:28N 51°03' E 002°22'0 0.0
2017-Dec-08 06:00N 51°03' E 002°22'1 2.5
2017-Dec-08 05:30N 51°03' E 002°20'1 1.1
2017-Dec-08 05:00N 51°03' E 002°19'0 0.0
2017-Dec-08 04:09N 51°03' E 002°19'0 0.0
2017-Dec-08 04:00N 51°03' E 002°19'0 0.0
2017-Dec-08 03:27N 51°03' E 002°19'0 0.0
2017-Dec-08 02:57N 51°03' E 002°19'0 0.0
2017-Dec-08 02:30N 51°03' E 002°19'0 0.0
2017-Dec-08 02:00N 51°03' E 002°19'0 0.0
2017-Dec-08 01:27N 51°03' E 002°19'0 0.0
2017-Dec-08 01:00N 51°03' E 002°19'0 0.0
2017-Dec-08 00:30N 51°03' E 002°19'0 0.0
2017-Dec-08 00:00N 51°03' E 002°19'0 0.0
2017-Dec-07 23:30N 51°03' E 002°19'0 0.0
2017-Dec-07 23:00N 51°03' E 002°19'0 0.0
2017-Dec-07 22:30N 51°03' E 002°19'0 0.0
2017-Dec-07 22:00N 51°03' E 002°19'0 0.0
2017-Dec-07 21:24N 51°03' E 002°19'0 0.0
2017-Dec-07 20:18N 51°03' E 002°19'0 0.0
2017-Dec-07 19:57N 51°03' E 002°19'0 0.0
2017-Dec-07 19:21N 51°03' E 002°19'0 0.0
2017-Dec-07 19:00N 51°03' E 002°19'0 0.0
2017-Dec-07 18:18N 51°03' E 002°19'0 0.0
2017-Dec-07 17:57N 51°03' E 002°19'0 0.0
2017-Dec-07 17:30N 51°03' E 002°19'0 0.0
2017-Dec-07 17:00N 51°03' E 002°19'0 0.0
2017-Dec-07 16:21N 51°03' E 002°19'0 0.0
2017-Dec-07 15:51N 51°03' E 002°19'0 0.0
2017-Dec-07 15:06N 51°03' E 002°19'0 0.0
2017-Dec-07 14:36N 51°03' E 002°19'0 0.0
2017-Dec-07 14:27N 51°03' E 002°19'0 0.0
2017-Dec-07 14:00N 51°03' E 002°19'1 2.1
2017-Dec-07 13:30N 51°03' E 002°21'0 0.5
2017-Dec-07 12:57N 51°03' E 002°21'0 0.0
2017-Dec-07 12:29N 51°03' E 002°21'1 1.5
2017-Dec-07 11:57N 51°04' E 002°21'712.3
2017-Dec-07 11:24N 51°03' E 002°10'512.2
2017-Dec-07 11:00N 51°03' E 002°03'510.5
2017-Dec-07 10:30N 51°04' E 001°54'5 9.8
2017-Dec-07 10:00N 51°06' E 002°01'611.7
2017-Dec-07 09:31N 51°08' E 002°10'611.7
2017-Dec-07 09:00N 51°10' E 002°19'611.5
2017-Dec-07 08:29N 51°13' E 002°26'510.9
2017-Dec-07 08:00N 51°17' E 002°32'510.4
2017-Dec-07 07:30N 51°20' E 002°39'4 7.5
2017-Dec-07 06:58N 51°23' E 002°44'510.3
2017-Dec-07 06:28N 51°22' E 002°52'510.9
2017-Dec-07 06:01N 51°22' E 003°00'510.9
2017-Dec-07 05:31N 51°22' E 003°09'2 4.5
2017-Dec-07 05:00N 51°21' E 003°12'0 0.0
2017-Dec-07 04:30N 51°21' E 003°12'0 0.0
2017-Dec-07 04:00N 51°21' E 003°12'0 0.0
2017-Dec-07 03:30N 51°21' E 003°12'0 0.0
2017-Dec-07 03:00N 51°21' E 003°12'0 0.0
2017-Dec-07 02:30N 51°21' E 003°12'0 0.0
2017-Dec-07 02:00N 51°21' E 003°12'0 0.0
2017-Dec-07 01:30N 51°21' E 003°12'0 0.0
2017-Dec-07 01:00N 51°21' E 003°12'0 0.0
2017-Dec-07 00:30N 51°21' E 003°12'0 0.0
2017-Dec-07 00:00N 51°21' E 003°12'0 0.0
2017-Dec-06 23:30N 51°21' E 003°12'0 0.0
2017-Dec-06 23:00N 51°21' E 003°12'0 0.0
2017-Dec-06 22:30N 51°21' E 003°12'0 0.0
2017-Dec-06 22:00N 51°21' E 003°12'0 0.0
2017-Dec-06 21:27N 51°21' E 003°12'0 0.0
2017-Dec-06 21:00N 51°21' E 003°12'  
2017-Dec-04 10:21N 51°21' E 003°12'0 0.0
2017-Dec-04 10:00N 51°21' E 003°12'0 0.0
2017-Dec-04 09:30N 51°21' E 003°12'0 0.0
2017-Dec-04 09:00N 51°21' E 003°12'0 0.0
2017-Dec-04 08:30N 51°21' E 003°12'0 0.0
2017-Dec-04 07:54N 51°21' E 003°12'0 0.0
2017-Dec-04 07:30N 51°21' E 003°12'0 0.0
2017-Dec-04 07:00N 51°21' E 003°12'0 0.0
2017-Dec-04 06:30N 51°21' E 003°12'0 0.0
2017-Dec-04 06:00N 51°21' E 003°12'0 0.0
2017-Dec-04 05:30N 51°21' E 003°12'0 0.0
2017-Dec-04 05:00N 51°21' E 003°12'0 0.0
2017-Dec-04 04:30N 51°21' E 003°12'0 0.0
2017-Dec-04 04:00N 51°21' E 003°12'0 0.0
2017-Dec-04 03:30N 51°21' E 003°12'0 0.0
2017-Dec-04 03:00N 51°21' E 003°12'0 0.0
2017-Dec-04 02:30N 51°21' E 003°12'0 0.0
2017-Dec-04 02:00N 51°21' E 003°12'0 0.0
2017-Dec-04 01:30N 51°21' E 003°12'0 0.0
2017-Dec-04 01:00N 51°21' E 003°12'0 0.0
2017-Dec-04 00:30N 51°21' E 003°12'0 0.0
2017-Dec-04 00:00N 51°21' E 003°12'0 0.0
2017-Dec-03 23:30N 51°21' E 003°12'0 0.0
2017-Dec-03 23:00N 51°21' E 003°12'0 0.0
2017-Dec-03 22:30N 51°21' E 003°12'0 0.0
2017-Dec-03 22:00N 51°21' E 003°12'0 0.2
2017-Dec-03 21:31N 51°21' E 003°12'2 4.7
2017-Dec-03 21:01N 51°22' E 003°09'611.3
2017-Dec-03 20:31N 51°21' E 002°60'610.8
2017-Dec-03 19:58N 51°21' E 002°50'511.0
2017-Dec-03 19:30N 51°21' E 002°42'510.5
2017-Dec-03 19:00N 51°19' E 002°35'610.5
2017-Dec-03 18:28N 51°15' E 002°28'510.4
2017-Dec-03 17:59N 51°12' E 002°22'5 9.8
2017-Dec-03 17:29N 51°10' E 002°15'510.6
2017-Dec-03 17:00N 51°08' E 002°08'511.0
2017-Dec-03 16:30N 51°06' E 001°60'611.4
2017-Dec-03 16:00N 51°03' E 001°51'4 8.8
2017-Dec-03 15:30N 51°02' E 001°58'612.5
2017-Dec-03 15:00N 51°03' E 002°08'612.6
2017-Dec-03 14:30N 51°04' E 002°18'2 4.6
2017-Dec-03 14:00N 51°03' E 002°21'1 2.5
2017-Dec-03 13:30N 51°03' E 002°19'0 0.4
2017-Dec-03 12:38N 51°03' E 002°19'0 0.0
2017-Dec-03 12:29N 51°03' E 002°19'0 0.0
2017-Dec-03 11:56N 51°03' E 002°19'0 0.0
2017-Dec-03 11:23N 51°03' E 002°19'0 0.0
2017-Dec-03 10:47N 51°03' E 002°19'0 0.0
2017-Dec-03 10:17N 51°03' E 002°19'0 0.0
2017-Dec-03 09:53N 51°03' E 002°19'0 0.0
2017-Dec-03 09:14N 51°03' E 002°19'0 0.0
2017-Dec-03 08:56N 51°03' E 002°19'0 0.0
2017-Dec-03 08:25N 51°03' E 002°19'0 1.0
2017-Dec-03 07:55N 51°03' E 002°19'0 0.0
2017-Dec-03 07:28N 51°03' E 002°19'0 0.0
2017-Dec-03 06:55N 51°03' E 002°19'0 0.0
2017-Dec-03 06:19N 51°03' E 002°19'0 0.0
2017-Dec-03 05:37N 51°03' E 002°19'0 0.0
2017-Dec-03 05:25N 51°03' E 002°19'0 0.0
2017-Dec-03 04:58N 51°03' E 002°19'0 0.0
2017-Dec-03 04:25N 51°03' E 002°19'0 0.0
2017-Dec-03 03:55N 51°03' E 002°19'0 0.0
2017-Dec-03 03:22N 51°03' E 002°19'0 0.0
2017-Dec-03 02:55N 51°03' E 002°19'0 0.0
2017-Dec-03 02:28N 51°03' E 002°19'0 0.0
2017-Dec-03 01:55N 51°03' E 002°19'0 0.0
2017-Dec-03 01:25N 51°03' E 002°19'0 0.0
2017-Dec-03 00:55N 51°03' E 002°19'0 0.0
2017-Dec-03 00:28N 51°03' E 002°19'0 0.0
2017-Dec-02 23:58N 51°03' E 002°19'0 0.0
2017-Dec-02 23:28N 51°03' E 002°19'0 0.0
2017-Dec-02 22:58N 51°03' E 002°19'0 0.0
2017-Dec-02 22:28N 51°03' E 002°19'0 0.0
2017-Dec-02 21:49N 51°03' E 002°19'0 0.0
2017-Dec-02 21:16N 51°03' E 002°19'0 0.0
2017-Dec-02 20:58N 51°03' E 002°19'0 0.0
2017-Dec-02 20:19N 51°03' E 002°19'0 0.0
2017-Dec-02 19:58N 51°03' E 002°19'0 0.0
2017-Dec-02 17:43N 51°03' E 002°19'0 0.1
2017-Dec-02 17:30N 51°03' E 002°19'0 0.2
2017-Dec-02 16:54N 51°03' E 002°19'0 0.0
2017-Dec-02 16:00N 51°03' E 002°19'0 0.0
2017-Dec-02 15:30N 51°03' E 002°19'0 0.0
2017-Dec-02 15:00N 51°03' E 002°19'0 0.0
2017-Dec-02 14:30N 51°03' E 002°19'0 0.0
2017-Dec-02 13:51N 51°03' E 002°19'0 0.0
2017-Dec-02 13:27N 51°03' E 002°19'0 0.0
2017-Dec-02 12:57N 51°03' E 002°19'0 0.0
2017-Dec-02 12:27N 51°03' E 002°19'0 0.0
2017-Dec-02 12:00N 51°03' E 002°19'0 0.0
2017-Dec-02 11:27N 51°03' E 002°19'0 0.0
2017-Dec-02 10:57N 51°03' E 002°19'0 0.0
2017-Dec-02 10:30N 51°03' E 002°19'0 0.0
2017-Dec-02 09:57N 51°03' E 002°19'0 0.0
2017-Dec-02 09:27N 51°03' E 002°19'0 0.0
2017-Dec-02 08:57N 51°03' E 002°19'0 0.0
2017-Dec-02 08:15N 51°03' E 002°19'0 0.0
2017-Dec-02 07:48N 51°03' E 002°19'0 0.0
2017-Dec-02 07:21N 51°03' E 002°19'0 0.0
2017-Dec-02 06:57N 51°03' E 002°19'0 0.0
2017-Dec-02 06:27N 51°03' E 002°19'0 0.0
2017-Dec-02 05:57N 51°03' E 002°19'0 0.0
2017-Dec-02 05:18N 51°03' E 002°19'0 0.0
2017-Dec-02 04:51N 51°03' E 002°19'0 0.0
2017-Dec-02 04:27N 51°03' E 002°19'0 0.6
2017-Dec-02 04:00N 51°03' E 002°20'1 1.8
2017-Dec-02 03:25N 51°03' E 002°21'1 2.2
2017-Dec-02 03:00N 51°04' E 002°21'5 9.0
2017-Dec-02 02:29N 51°04' E 002°14'510.0
2017-Dec-02 01:59N 51°03' E 002°06'510.4
2017-Dec-02 01:30N 51°02' E 001°58'5 9.2
2017-Dec-02 01:00N 51°02' E 001°51'4 8.1
2017-Dec-02 00:30N 51°05' E 001°55'510.1
2017-Dec-02 00:00N 51°07' E 002°03'5 9.7
2017-Dec-01 23:30N 51°08' E 002°10'5 9.6
2017-Dec-01 23:00N 51°10' E 002°17'5 8.5
2017-Dec-01 22:29N 51°12' E 002°23'4 9.0
2017-Dec-01 21:59N 51°15' E 002°29'5 9.7
2017-Dec-01 21:28N 51°19' E 002°34'510.1
2017-Dec-01 21:00N 51°21' E 002°41'510.2
2017-Dec-01 20:29N 51°22' E 002°49'612.5
2017-Dec-01 20:01N 51°22' E 002°59'612.6
2017-Dec-01 19:30N 51°22' E 003°09'2 4.6
2017-Dec-01 19:00N 51°21' E 003°12'0 0.0
2017-Dec-01 18:30N 51°21' E 003°12'0 0.0
2017-Dec-01 18:00N 51°21' E 003°12'0 0.0
2017-Dec-01 17:30N 51°21' E 003°12'  

Dump ship's entire track history